createdAt,value
2022-11-02T00:01:39.490Z,100674.81
2022-11-02T00:04:06.190Z,100673.97
2022-11-02T00:06:32.799Z,100679.53
2022-11-02T00:08:59.313Z,100682.00
2022-11-02T00:11:26.024Z,100675.47
2022-11-02T00:13:52.960Z,100670.00
2022-11-02T00:16:21.966Z,100671.78
2022-11-02T00:18:53.252Z,100668.81
2022-11-02T00:21:21.533Z,100660.75
2022-11-02T00:23:49.293Z,100667.66
2022-11-02T00:26:16.739Z,100667.94
2022-11-02T00:28:43.977Z,100664.31
2022-11-02T00:31:10.684Z,100651.47
2022-11-02T00:33:37.563Z,100663.03
2022-11-02T00:36:04.579Z,100651.63
2022-11-02T00:38:32.057Z,100659.97
2022-11-02T00:40:59.316Z,100657.56
2022-11-02T00:43:25.798Z,100657.94
2022-11-02T00:45:52.382Z,100649.78
2022-11-02T00:48:19.544Z,100663.22
2022-11-02T00:50:46.594Z,100651.19
2022-11-02T00:53:13.389Z,100656.22
2022-11-02T00:55:47.436Z,100652.44
2022-11-02T00:58:14.438Z,100654.91
2022-11-02T01:00:41.827Z,100655.53
2022-11-02T01:03:09.436Z,100661.69
2022-11-02T01:05:36.868Z,100660.16
2022-11-02T01:08:04.296Z,100659.28
2022-11-02T01:10:31.527Z,100657.31
2022-11-02T01:13:01.059Z,100646.13
2022-11-02T01:15:27.722Z,100645.34
2022-11-02T01:17:54.335Z,100641.94
2022-11-02T01:20:21.568Z,100640.78
2022-11-02T01:22:48.062Z,100647.69
2022-11-02T01:25:15.388Z,100652.59
2022-11-02T01:27:41.917Z,100646.59
2022-11-02T01:30:09.074Z,100651.22
2022-11-02T01:32:36.224Z,100653.66
2022-11-02T01:35:02.942Z,100655.16
2022-11-02T01:37:29.573Z,100649.72
2022-11-02T01:39:56.292Z,100657.22
2022-11-02T01:42:25.166Z,100660.00
2022-11-02T01:44:52.333Z,100643.59
2022-11-02T01:47:23.350Z,100648.09
2022-11-02T01:50:12.470Z,100647.06
2022-11-02T01:52:40.053Z,100649.53
2022-11-02T01:55:13.358Z,100644.81
2022-11-02T01:57:43.419Z,100644.97
2022-11-02T02:00:13.550Z,100649.66
2022-11-02T02:02:59.553Z,100647.75
2022-11-02T02:05:26.760Z,100656.84
2022-11-02T02:07:55.464Z,100654.47
2022-11-02T02:10:22.621Z,100642.16
2022-11-02T02:12:49.902Z,100653.03
2022-11-02T02:15:25.097Z,100658.22
2022-11-02T02:18:25.973Z,100666.81
2022-11-02T02:21:17.035Z,100657.72
2022-11-02T02:23:49.504Z,100662.94
2022-11-02T02:26:57.641Z,100661.25
2022-11-02T02:29:35.893Z,100659.09
2022-11-02T02:32:10.783Z,100656.38
2022-11-02T02:34:45.059Z,100656.59
2022-11-02T02:37:19.383Z,100647.13
2022-11-02T02:40:07.098Z,100653.56
2022-11-02T02:42:50.873Z,100648.34
2022-11-02T02:45:30.049Z,100650.50
2022-11-02T02:48:03.911Z,100646.91
2022-11-02T02:50:40.745Z,100638.50
2022-11-02T02:53:09.614Z,100647.38
2022-11-02T02:55:42.980Z,100651.84
2022-11-02T02:58:15.532Z,100657.53
2022-11-02T03:00:44.230Z,100642.38
2022-11-02T03:03:18.595Z,100652.97
2022-11-02T03:06:01.631Z,100651.50
2022-11-02T03:08:30.402Z,100657.69
2022-11-02T03:11:19.378Z,100656.31
2022-11-02T03:14:16.913Z,100659.31
2022-11-02T03:16:48.306Z,100667.50
2022-11-02T03:19:20.208Z,100666.50
2022-11-02T03:21:55.989Z,100667.75
2022-11-02T03:24:36.330Z,100666.03
2022-11-02T03:27:21.275Z,100670.28
2022-11-02T03:30:04.292Z,100675.09
2022-11-02T03:32:48.478Z,100680.25
2022-11-02T03:35:21.316Z,100672.13
2022-11-02T03:37:55.884Z,100684.59
2022-11-02T03:40:28.462Z,100684.09
2022-11-02T03:42:57.571Z,100675.78
2022-11-02T03:45:27.915Z,100691.38
2022-11-02T03:48:06.614Z,100691.53
2022-11-02T03:50:37.595Z,100691.84
2022-11-02T03:53:15.267Z,100695.72
2022-11-02T03:55:54.023Z,100694.88
2022-11-02T03:58:20.956Z,100699.16
2022-11-02T04:00:54.017Z,100703.81
2022-11-02T04:03:23.259Z,100693.84
2022-11-02T04:05:50.099Z,100696.53
2022-11-02T04:08:54.415Z,100710.31
2022-11-02T04:11:40.275Z,100713.72
2022-11-02T04:14:28.797Z,100715.84
2022-11-02T04:17:15.681Z,100719.44
2022-11-02T04:19:49.752Z,100717.53
2022-11-02T04:22:36.747Z,100729.28
2022-11-02T04:25:16.399Z,100727.41
2022-11-02T04:27:51.036Z,100725.53
2022-11-02T04:30:22.864Z,100728.66
2022-11-02T04:33:09.956Z,100730.59
2022-11-02T04:35:44.921Z,100733.00
2022-11-02T04:38:30.815Z,100738.28
2022-11-02T04:41:17.715Z,100739.59
2022-11-02T04:43:47.177Z,100741.91
2022-11-02T04:46:15.635Z,100742.78
2022-11-02T04:48:43.492Z,100747.91
2022-11-02T04:51:10.050Z,100745.38
2022-11-02T04:53:38.330Z,100750.84
2022-11-02T04:56:06.008Z,100760.00
2022-11-02T04:58:33.882Z,100763.88
2022-11-02T05:01:09.365Z,100770.94
2022-11-02T05:03:37.224Z,100765.81
2022-11-02T05:06:04.257Z,100767.53
2022-11-02T05:08:32.357Z,100768.75
2022-11-02T05:10:59.387Z,100770.94
2022-11-02T05:13:27.925Z,100776.09
2022-11-02T05:15:59.163Z,100779.03
2022-11-02T05:18:27.908Z,100776.09
2022-11-02T05:20:57.271Z,100770.81
2022-11-02T05:23:26.721Z,100787.22
2022-11-02T05:26:01.761Z,100784.44
2022-11-02T05:28:31.189Z,100787.81
2022-11-02T05:31:00.460Z,100788.31
2022-11-02T05:33:30.869Z,100791.50
2022-11-02T05:36:00.323Z,100798.06
2022-11-02T05:38:29.346Z,100786.38
2022-11-02T05:40:58.720Z,100794.66
2022-11-02T05:43:28.394Z,100795.72
2022-11-02T05:46:00.849Z,100804.25
2022-11-02T05:48:35.692Z,100802.56
2022-11-02T05:51:06.004Z,100808.13
2022-11-02T05:53:34.119Z,100804.69
2022-11-02T05:56:01.930Z,100811.47
2022-11-02T05:58:29.110Z,100806.81
2022-11-02T06:01:02.482Z,100809.81
2022-11-02T06:03:29.668Z,100827.91
2022-11-02T06:05:57.792Z,100820.22
2022-11-02T06:08:24.991Z,100821.09
2022-11-02T06:10:51.794Z,100825.59
2022-11-02T06:13:18.381Z,100832.38
2022-11-02T06:15:45.215Z,100842.19
2022-11-02T06:18:12.650Z,100843.47
2022-11-02T06:20:39.148Z,100843.47
2022-11-02T06:23:06.020Z,100848.16
2022-11-02T06:25:32.758Z,100863.06
2022-11-02T06:27:59.283Z,100868.16
2022-11-02T06:30:29.681Z,100864.09
2022-11-02T06:32:56.248Z,100871.97
2022-11-02T06:35:23.238Z,100882.22
2022-11-02T06:37:49.931Z,100890.72
2022-11-02T06:40:17.709Z,100890.75
2022-11-02T06:43:03.293Z,100892.44
2022-11-02T06:45:32.638Z,100902.44
2022-11-02T06:47:59.227Z,100912.88
2022-11-02T06:50:26.062Z,100911.16
2022-11-02T06:52:53.116Z,100918.59
2022-11-02T06:55:19.739Z,100926.91
2022-11-02T06:57:46.305Z,100923.09
2022-11-02T07:00:20.836Z,100926.06
2022-11-02T07:03:01.598Z,100930.34
2022-11-02T07:05:28.760Z,100938.41
2022-11-02T07:07:55.579Z,100935.63
2022-11-02T07:10:22.511Z,100951.19
2022-11-02T07:12:52.316Z,100955.00
2022-11-02T07:15:19.048Z,100967.81
2022-11-02T07:17:45.599Z,100956.72
2022-11-02T07:20:12.458Z,100966.97
2022-11-02T07:22:39.168Z,100965.19
2022-11-02T07:25:06.569Z,100969.72
2022-11-02T07:27:39.983Z,100983.72
2022-11-02T07:30:07.745Z,100975.84
2022-11-02T07:32:41.804Z,100976.91
2022-11-02T07:35:13.810Z,100986.47
2022-11-02T07:37:40.704Z,100995.19
2022-11-02T07:40:09.660Z,101001.38
2022-11-02T07:42:36.399Z,101003.53
2022-11-02T07:45:05.915Z,101017.75
2022-11-02T07:47:33.171Z,101012.47
2022-11-02T07:50:00.738Z,101012.88
2022-11-02T07:52:27.292Z,101023.53
2022-11-02T07:54:54.124Z,101024.81
2022-11-02T07:57:20.646Z,101036.75
2022-11-02T07:59:47.207Z,101032.06
2022-11-02T08:02:14.070Z,101038.03
2022-11-02T08:04:43.952Z,101047.59
2022-11-02T08:07:12.545Z,101046.53
2022-11-02T08:09:39.207Z,101059.06
2022-11-02T08:12:06.074Z,101046.53
2022-11-02T08:14:32.646Z,101059.50
2022-11-02T08:16:59.196Z,101060.59
2022-11-02T08:19:25.698Z,101073.38
2022-11-02T08:21:52.858Z,101067.59
2022-11-02T08:24:19.421Z,101082.06
2022-11-02T08:26:47.513Z,101080.13
2022-11-02T08:29:15.086Z,101089.47
2022-11-02T08:31:41.745Z,101088.63
2022-11-02T08:34:08.325Z,101092.06
2022-11-02T08:36:36.800Z,101092.69
2022-11-02T08:39:03.630Z,101093.53
2022-11-02T08:41:30.328Z,101099.47
2022-11-02T08:43:57.524Z,101100.34
2022-11-02T08:46:24.314Z,101099.47
2022-11-02T08:48:50.823Z,101107.19
2022-11-02T08:51:17.460Z,101107.84
2022-11-02T08:53:50.178Z,101122.31
2022-11-02T08:56:18.381Z,101124.38
2022-11-02T08:58:45.006Z,101122.69
2022-11-02T09:01:11.973Z,101121.47
2022-11-02T09:03:38.629Z,101128.88
2022-11-02T09:06:05.408Z,101126.84
2022-11-02T09:08:33.074Z,101126.44
2022-11-02T09:11:02.550Z,101116.66
2022-11-02T09:13:29.482Z,101122.06
2022-11-02T09:15:57.947Z,101136.16
2022-11-02T09:18:24.510Z,101137.19
2022-11-02T09:20:51.583Z,101128.94
2022-11-02T09:23:20.364Z,101133.41
2022-11-02T09:25:47.836Z,101154.63
2022-11-02T09:28:15.438Z,101140.56
2022-11-02T09:30:42.646Z,101150.78
2022-11-02T09:33:09.847Z,101140.97
2022-11-02T09:35:39.449Z,101153.75
2022-11-02T09:38:06.474Z,101167.16
2022-11-02T09:40:43.336Z,101155.91
2022-11-02T09:43:34.504Z,101161.41
2022-11-02T09:46:01.221Z,101171.41
2022-11-02T09:48:42.452Z,101150.63
2022-11-02T09:51:20.517Z,101167.72
2022-11-02T09:54:17.308Z,101171.28
2022-11-02T09:56:45.676Z,101174.72
2022-11-02T09:59:16.727Z,101166.66
2022-11-02T10:01:58.598Z,101166.91
2022-11-02T10:05:02.802Z,101165.25
2022-11-02T10:08:07.653Z,101162.88
2022-11-02T10:10:42.886Z,101160.16
2022-11-02T10:13:21.640Z,101160.59
2022-11-02T10:15:55.151Z,101164.66
2022-11-02T10:18:31.630Z,101169.44
2022-11-02T10:21:07.117Z,101176.59
2022-11-02T10:23:41.461Z,101166.78
2022-11-02T10:26:23.052Z,101170.22
2022-11-02T10:29:19.980Z,101178.34
2022-11-02T10:31:48.437Z,101170.69
2022-11-02T10:34:24.125Z,101182.00
2022-11-02T10:37:16.706Z,101184.31
2022-11-02T10:39:52.814Z,101185.56
2022-11-02T10:42:42.820Z,101196.69
2022-11-02T10:45:38.032Z,101200.34
2022-11-02T10:48:04.864Z,101198.13
2022-11-02T10:50:42.961Z,101211.09
2022-11-02T10:53:39.670Z,101216.88
2022-11-02T10:56:12.781Z,101200.25
2022-11-02T10:58:45.842Z,101209.47
2022-11-02T11:01:13.572Z,101217.53
2022-11-02T11:03:58.962Z,101215.88
2022-11-02T11:06:37.122Z,101212.50
2022-11-02T11:09:30.452Z,101210.16
2022-11-02T11:12:20.514Z,101220.00
2022-11-02T11:20:37.254Z,101232.97
2022-11-02T11:23:24.442Z,101232.56
2022-11-02T11:26:01.343Z,101231.50
2022-11-02T11:28:30.870Z,101236.81
2022-11-02T11:31:10.922Z,101226.59
2022-11-02T11:34:00.201Z,101246.66
2022-11-02T11:36:33.526Z,101230.00
2022-11-02T11:39:16.672Z,101230.41
2022-11-02T11:41:43.303Z,101228.28
2022-11-02T11:44:14.567Z,101222.13
2022-11-02T11:46:45.652Z,101236.41
2022-11-02T11:49:41.939Z,101231.06
2022-11-02T11:52:29.973Z,101233.00
2022-11-02T11:55:00.628Z,101235.97
2022-11-02T12:00:29.387Z,101233.88
2022-11-02T12:03:22.285Z,101226.16
2022-11-02T12:05:57.620Z,101223.63
2022-11-02T12:08:42.493Z,101232.97
2022-11-02T12:11:35.198Z,101224.66
2022-11-02T12:14:10.788Z,101227.00
2022-11-02T12:16:52.200Z,101224.88
2022-11-02T12:19:27.388Z,101222.31
2022-11-02T12:22:18.680Z,101211.19
2022-11-02T12:25:09.025Z,101208.84
2022-11-02T12:28:15.019Z,101209.91
2022-11-02T12:30:54.630Z,101209.09
2022-11-02T12:33:36.565Z,101212.94
2022-11-02T12:36:18.808Z,101202.28
2022-11-02T12:38:53.431Z,101208.00
2022-11-02T12:41:39.004Z,101205.63
2022-11-02T12:44:37.398Z,101202.88
2022-11-02T12:47:18.523Z,101201.16
2022-11-02T12:50:37.403Z,101200.09
2022-11-02T12:53:09.631Z,101207.97
2022-11-02T12:55:41.773Z,101205.97
2022-11-02T12:58:22.153Z,101207.91
2022-11-02T13:00:56.038Z,101205.59
2022-11-02T13:03:34.792Z,101200.31
2022-11-02T13:06:06.551Z,101192.00
2022-11-02T13:08:42.180Z,101197.50
2022-11-02T13:11:24.826Z,101192.78
2022-11-02T13:13:56.458Z,101201.75
2022-11-02T13:16:37.818Z,101192.59
2022-11-02T13:19:06.133Z,101195.81
2022-11-02T13:21:45.977Z,101199.25
2022-11-02T13:24:23.913Z,101190.25
2022-11-02T13:26:57.578Z,101190.69
2022-11-02T13:29:41.738Z,101184.28
2022-11-02T13:32:33.819Z,101191.50
2022-11-02T13:35:17.421Z,101191.13
2022-11-02T13:37:58.534Z,101187.69
2022-11-02T13:40:31.170Z,101187.69
2022-11-02T13:43:08.421Z,101180.41
2022-11-02T13:45:55.228Z,101176.19
2022-11-02T13:48:49.683Z,101178.75
2022-11-02T13:51:29.047Z,101186.19
2022-11-02T13:54:09.153Z,101186.44
2022-11-02T13:56:37.629Z,101189.22
2022-11-02T13:59:07.993Z,101186.63
2022-11-02T14:01:40.748Z,101189.41
2022-11-02T14:04:10.160Z,101195.41
2022-11-02T14:07:09.094Z,101187.31
2022-11-02T14:09:39.832Z,101184.69
2022-11-02T14:12:21.669Z,101180.00
2022-11-02T14:15:17.774Z,101186.81
2022-11-02T14:17:53.640Z,101173.94
2022-11-02T14:20:46.336Z,101175.56
2022-11-02T14:23:14.175Z,101175.41
2022-11-02T14:26:00.655Z,101175.78
2022-11-02T14:28:40.987Z,101189.78
2022-11-02T14:31:16.461Z,101182.66
2022-11-02T14:34:11.471Z,101174.16
2022-11-02T14:36:55.990Z,101167.28
2022-11-02T14:39:26.862Z,101173.16
2022-11-02T14:42:10.107Z,101162.91
2022-11-02T14:44:36.579Z,101164.91
2022-11-02T14:47:13.303Z,101159.38
2022-11-02T14:49:48.799Z,101165.66
2022-11-02T14:52:15.279Z,101159.50
2022-11-02T14:54:53.356Z,101155.63
2022-11-02T14:57:25.145Z,101155.19
2022-11-02T14:59:56.533Z,101151.84
2022-11-02T15:02:43.015Z,101151.16
2022-11-02T15:05:23.176Z,101151.25
2022-11-02T15:07:55.084Z,101152.84
2022-11-02T15:10:21.541Z,101144.78
2022-11-02T15:12:48.867Z,101147.63
2022-11-02T15:15:26.738Z,101133.81
2022-11-02T15:17:57.901Z,101136.50
2022-11-02T15:20:33.315Z,101131.78
2022-11-02T15:23:30.358Z,101140.97
2022-11-02T15:25:59.107Z,101138.22
2022-11-02T15:28:29.485Z,101131.34
2022-11-02T15:30:59.933Z,101130.34
2022-11-02T15:33:42.304Z,101130.34
2022-11-02T15:36:18.046Z,101132.00
2022-11-02T15:38:52.844Z,101129.00
2022-11-02T15:41:46.768Z,101133.75
2022-11-02T15:44:44.380Z,101124.16
2022-11-02T15:47:24.462Z,101122.22
2022-11-02T15:50:19.577Z,101129.44
2022-11-02T15:53:02.027Z,101120.94
2022-11-02T15:56:02.600Z,101120.09
2022-11-02T15:58:49.280Z,101116.28
2022-11-02T16:01:15.873Z,101123.38
2022-11-02T16:03:45.650Z,101127.25
2022-11-02T16:06:12.794Z,101127.81
2022-11-02T16:08:39.374Z,101132.13
2022-11-02T16:11:17.362Z,101126.13
2022-11-02T16:14:03.546Z,101126.50
2022-11-02T16:16:35.688Z,101128.66
2022-11-02T16:19:02.792Z,101127.38
2022-11-02T16:21:30.200Z,101130.13
2022-11-02T16:23:57.630Z,101128.19
2022-11-02T16:26:26.890Z,101128.59
2022-11-02T16:28:56.536Z,101115.84
2022-11-02T16:31:31.385Z,101117.81
2022-11-02T16:34:00.744Z,101117.84
2022-11-02T16:36:35.720Z,101117.59
2022-11-02T16:39:26.913Z,101120.22
2022-11-02T16:41:57.136Z,101119.59
2022-11-02T16:44:29.696Z,101115.53
2022-11-02T16:47:09.704Z,101110.41
2022-11-02T16:49:58.660Z,101116.41
2022-11-02T16:52:34.646Z,101115.56
2022-11-02T16:55:01.991Z,101120.69
2022-11-02T16:57:41.987Z,101116.41
2022-11-02T17:00:19.599Z,101112.56
2022-11-02T17:02:47.171Z,101107.44
2022-11-02T17:05:23.670Z,101116.25
2022-11-02T17:08:09.449Z,101115.22
2022-11-02T17:10:39.041Z,101113.53
2022-11-02T17:13:15.939Z,101105.34
2022-11-02T17:15:51.891Z,101105.56
2022-11-02T17:18:21.183Z,101109.22
2022-11-02T17:20:49.004Z,101105.81
2022-11-02T17:23:35.656Z,101100.50
2022-11-02T17:26:37.837Z,101105.63
2022-11-02T17:29:25.194Z,101103.91
2022-11-02T17:32:00.429Z,101102.81
2022-11-02T17:34:27.818Z,101101.16
2022-11-02T17:36:54.765Z,101101.56
2022-11-02T17:39:21.741Z,101096.19
2022-11-02T17:42:14.982Z,101101.34
2022-11-02T17:44:42.186Z,101105.63
2022-11-02T17:47:12.216Z,101099.84
2022-11-02T17:49:38.892Z,101104.97
2022-11-02T17:52:06.298Z,101106.69
2022-11-02T17:54:33.161Z,101112.66
2022-11-02T17:57:01.587Z,101111.38
2022-11-02T17:59:28.937Z,101099.03
2022-11-02T18:01:55.797Z,101106.72
2022-11-02T18:04:23.032Z,101099.47
2022-11-02T18:06:49.527Z,101094.78
2022-11-02T18:09:19.218Z,101100.53
2022-11-02T18:11:47.184Z,101096.47
2022-11-02T18:14:16.671Z,101096.91
2022-11-02T18:16:44.190Z,101090.28
2022-11-02T18:19:10.971Z,101098.59
2022-11-02T18:21:37.701Z,101084.75
2022-11-02T18:24:04.385Z,101086.06
2022-11-02T18:26:30.898Z,101080.28
2022-11-02T18:28:57.581Z,101085.19
2022-11-02T18:31:24.784Z,101079.88
2022-11-02T18:33:52.786Z,101080.94
2022-11-02T18:36:19.650Z,101077.75
2022-11-02T18:38:46.506Z,101067.47
2022-11-02T18:41:34.630Z,101070.03
2022-11-02T18:44:08.864Z,101072.63
2022-11-02T18:46:38.765Z,101063.69
2022-11-02T18:49:05.331Z,101059.88
2022-11-02T18:51:31.998Z,101064.09
2022-11-02T18:54:01.411Z,101067.94
2022-11-02T18:56:28.647Z,101064.53
2022-11-02T18:58:55.843Z,101057.31
2022-11-02T19:01:24.101Z,101061.53
2022-11-02T19:03:58.903Z,101059.03
2022-11-02T19:06:46.425Z,101050.72
2022-11-02T19:09:18.051Z,101049.00
2022-11-02T19:11:53.604Z,101054.97
2022-11-02T19:14:21.362Z,101047.03
2022-11-02T19:16:47.989Z,101043.22
2022-11-02T19:19:14.570Z,101042.81
2022-11-02T19:21:41.329Z,101041.31
2022-11-02T19:24:08.676Z,101043.03
2022-11-02T19:26:35.928Z,101041.09
2022-11-02T19:29:06.077Z,101030.88
2022-11-02T19:31:34.248Z,101036.41
2022-11-02T19:34:00.834Z,101027.25
2022-11-02T19:36:27.873Z,101020.19
2022-11-02T19:38:54.408Z,101016.41
2022-11-02T19:41:21.705Z,101018.72
2022-11-02T19:43:48.547Z,101014.28
2022-11-02T19:46:17.671Z,101007.63
2022-11-02T19:48:44.915Z,101007.84
2022-11-02T19:51:17.425Z,101003.38
2022-11-02T19:53:52.458Z,101005.53
2022-11-02T19:56:20.879Z,101007.63
2022-11-02T19:58:49.992Z,101006.78
2022-11-02T20:01:22.731Z,100996.75
2022-11-02T20:03:50.303Z,100992.31
2022-11-02T20:06:23.539Z,100982.91
2022-11-02T20:08:54.435Z,100988.91
2022-11-02T20:11:21.604Z,100982.28
2022-11-02T20:13:48.949Z,100975.06
2022-11-02T20:16:18.615Z,100976.53
2022-11-02T20:18:48.110Z,100975.91
2022-11-02T20:21:17.071Z,100971.81
2022-11-02T20:23:44.343Z,100974.63
2022-11-02T20:26:17.638Z,100962.22
2022-11-02T20:28:47.343Z,100968.19
2022-11-02T20:31:19.995Z,100959.69
2022-11-02T20:33:47.086Z,100957.53
2022-11-02T20:36:15.049Z,100948.81
2022-11-02T20:38:42.156Z,100944.53
2022-11-02T20:41:17.486Z,100950.75
2022-11-02T20:43:46.094Z,100935.63
2022-11-02T20:49:19.798Z,100933.25
2022-11-02T20:51:50.864Z,100925.56
2022-11-02T20:54:19.387Z,100921.31
2022-11-02T20:56:46.430Z,100922.84
2022-11-02T20:59:12.974Z,100920.50
2022-11-02T21:01:39.854Z,100925.16
2022-11-02T21:04:06.486Z,100923.06
2022-11-02T21:06:33.326Z,100927.75
2022-11-02T21:09:00.547Z,100927.72
2022-11-02T21:11:46.071Z,100928.59
2022-11-02T21:14:12.661Z,100912.81
2022-11-02T21:16:39.291Z,100912.63
2022-11-02T21:19:06.614Z,100916.00
2022-11-02T21:21:33.599Z,100900.69
2022-11-02T21:24:00.267Z,100905.16
2022-11-02T21:26:26.874Z,100909.22
2022-11-02T21:28:53.449Z,100911.97
2022-11-02T21:31:21.508Z,100907.28
2022-11-02T21:33:49.474Z,100894.97
2022-11-02T21:36:17.560Z,100890.25
2022-11-02T21:38:50.889Z,100895.19
2022-11-02T21:41:26.088Z,100895.34
2022-11-02T21:43:52.629Z,100896.69
2022-11-02T21:46:19.657Z,100896.03
2022-11-02T21:48:46.739Z,100897.31
2022-11-02T21:51:19.670Z,100898.38
2022-11-02T21:53:48.041Z,100896.22
2022-11-02T21:56:17.399Z,100894.91
2022-11-02T21:58:46.018Z,100882.59
2022-11-02T22:01:44.345Z,100892.41
2022-11-02T22:04:13.867Z,100880.06
2022-11-02T22:06:40.899Z,100878.13
2022-11-02T22:09:10.237Z,100882.16
2022-11-02T22:11:36.843Z,100876.63
2022-11-02T22:14:04.046Z,100879.56
2022-11-02T22:16:36.376Z,100879.41
2022-11-02T22:19:21.293Z,100870.69
2022-11-02T22:21:49.338Z,100868.94
2022-11-02T22:24:15.810Z,100874.53
2022-11-02T22:26:42.363Z,100860.88
2022-11-02T22:29:09.314Z,100845.34
2022-11-02T22:31:39.092Z,100848.94
2022-11-02T22:34:08.298Z,100850.91
2022-11-02T22:36:36.111Z,100837.88
2022-11-02T22:39:05.483Z,100835.75
2022-11-02T22:41:46.020Z,100838.31
2022-11-02T22:44:18.513Z,100832.38
2022-11-02T22:46:48.173Z,100833.19
2022-11-02T22:49:16.430Z,100826.81
2022-11-02T22:51:45.146Z,100822.34
2022-11-02T22:54:15.396Z,100822.53
2022-11-02T22:56:43.494Z,100808.50
2022-11-02T22:59:10.423Z,100804.84
2022-11-02T23:01:37.909Z,100811.44
2022-11-02T23:04:05.096Z,100805.25
2022-11-02T23:06:32.486Z,100800.38
2022-11-02T23:08:59.811Z,100806.75
2022-11-02T23:11:32.826Z,100795.47
2022-11-02T23:14:08.422Z,100790.59
2022-11-02T23:16:39.361Z,100782.09
2022-11-02T23:19:27.740Z,100785.31
2022-11-02T23:22:18.148Z,100780.59
2022-11-02T23:25:09.019Z,100780.41
2022-11-02T23:27:59.369Z,100779.50
2022-11-02T23:30:53.328Z,100771.03
2022-11-02T23:33:20.932Z,100764.81
2022-11-02T23:36:06.384Z,100764.81
2022-11-02T23:38:51.726Z,100761.84
2022-11-02T23:41:19.640Z,100761.19
2022-11-02T23:43:46.822Z,100739.25
2022-11-02T23:46:13.978Z,100739.88
2022-11-02T23:48:46.997Z,100737.34
2022-11-02T23:51:34.575Z,100745.81
2022-11-02T23:54:19.785Z,100739.00
2022-11-02T23:56:46.431Z,100743.25
2022-11-02T23:59:14.986Z,100737.94
